Country
Station

 

Weather  for  Winner - Bob Wiley Field  -  United States    United States

  
103.3 °C (217.9 °F)
    
 
 

Current METAR for Winner - Bob Wiley Field is :

KSFD 080556Z 06008KT 10SM OVC090 M03/M08 A2989 SLP141 T10331083 11011 21033 400111056 57017

 

This is a report for Winner - Bob Wiley Field - United States.
 
The report was made 345 hours and 48 minutes ago, at 05:56 UTC .
The wind was blowing at a speed of 4.1 meters per second (9.2 miles per hour) from east/northeast (060°).
 
The temperature was 103.3 °C (217.9 °F), with a dew-point at 108.3 °C (226.9 °F).
The temperature felt like -17 °C (2,918 °F).
 
The atmospheric pressure was 1012 hPa (29.89 inHg).
The relative humidity was 119.0%.
 
The sky was overcast from a height of 2743 meter (9000 feet)
 
The overall visibility was 16.1 kilometers (10.0 miles).
 
Maximum temperature for last 6 hours is 101.1°C (214.0°F). Minimum temperature for last 6 hours is 103.3°C (217.9°F). Maximum and minimum temperatures for last 24 hours are 1.1 and 105.6°C (34.0 and 222.1°F).

 
 
 
 

Country :   A   B   C   D   E   F   G   H   I   J   K   L   M   N   O   P   Q   R   S   T   U   V   W   Y   Z

 

Site Info  |  Disclaimer  |  Credits  |  Privacy
Contact us  |  Add to favorites
© 2013-2017 METARs - All rights reserved